sensor_id;sensor_type;location;lat;lon;timestamp;P1;durP1;ratioP1;P2;durP2;ratioP2
42420;SDS011;28063;48.140;11.588;2023-08-08T00:00:25;0.43;;;0.40;;
42420;SDS011;28063;48.140;11.588;2023-08-08T00:02:51;0.43;;;0.43;;
42420;SDS011;28063;48.140;11.588;2023-08-08T00:05:16;0.50;;;0.50;;
42420;SDS011;28063;48.140;11.588;2023-08-08T00:07:42;0.40;;;0.35;;
42420;SDS011;28063;48.140;11.588;2023-08-08T00:10:08;0.40;;;0.40;;
42420;SDS011;28063;48.140;11.588;2023-08-08T00:12:34;0.30;;;0.30;;
42420;SDS011;28063;48.140;11.588;2023-08-08T00:14:59;0.30;;;0.30;;
42420;SDS011;28063;48.140;11.588;2023-08-08T00:17:25;0.50;;;0.50;;
42420;SDS011;28063;48.140;11.588;2023-08-08T00:19:51;0.20;;;0.20;;
42420;SDS011;28063;48.140;11.588;2023-08-08T00:22:16;0.25;;;0.25;;
42420;SDS011;28063;48.140;11.588;2023-08-08T00:24:42;0.30;;;0.30;;
42420;SDS011;28063;48.140;11.588;2023-08-08T00:27:08;0.50;;;0.50;;
42420;SDS011;28063;48.140;11.588;2023-08-08T00:29:33;0.20;;;0.20;;
42420;SDS011;28063;48.140;11.588;2023-08-08T00:31:59;0.40;;;0.40;;
42420;SDS011;28063;48.140;11.588;2023-08-08T00:34:25;0.50;;;0.50;;
42420;SDS011;28063;48.140;11.588;2023-08-08T00:36:51;0.85;;;0.30;;
42420;SDS011;28063;48.140;11.588;2023-08-08T00:39:16;0.28;;;0.28;;
42420;SDS011;28063;48.140;11.588;2023-08-08T00:41:42;0.68;;;0.68;;
42420;SDS011;28063;48.140;11.588;2023-08-08T00:44:08;0.30;;;0.30;;
42420;SDS011;28063;48.140;11.588;2023-08-08T00:46:34;0.38;;;0.30;;
42420;SDS011;28063;48.140;11.588;2023-08-08T00:48:59;0.30;;;0.30;;
42420;SDS011;28063;48.140;11.588;2023-08-08T00:51:25;0.20;;;0.20;;
42420;SDS011;28063;48.140;11.588;2023-08-08T00:53:51;0.45;;;0.45;;
42420;SDS011;28063;48.140;11.588;2023-08-08T00:56:17;0.32;;;0.28;;
42420;SDS011;28063;48.140;11.588;2023-08-08T00:58:42;0.40;;;0.40;;
42420;SDS011;28063;48.140;11.588;2023-08-08T01:01:11;0.22;;;0.20;;
42420;SDS011;28063;48.140;11.588;2023-08-08T01:03:37;0.32;;;0.20;;
42420;SDS011;28063;48.140;11.588;2023-08-08T01:06:04;0.20;;;0.20;;
42420;SDS011;28063;48.140;11.588;2023-08-08T01:08:37;0.30;;;0.30;;
42420;SDS011;28063;48.140;11.588;2023-08-08T01:11:08;0.28;;;0.28;;
42420;SDS011;28063;48.140;11.588;2023-08-08T01:13:34;0.30;;;0.30;;
42420;SDS011;28063;48.140;11.588;2023-08-08T01:16:02;0.30;;;0.30;;
42420;SDS011;28063;48.140;11.588;2023-08-08T01:18:30;0.32;;;0.30;;
42420;SDS011;28063;48.140;11.588;2023-08-08T01:20:57;0.32;;;0.32;;
42420;SDS011;28063;48.140;11.588;2023-08-08T01:26:09;0.68;;;0.60;;
42420;SDS011;28063;48.140;11.588;2023-08-08T01:28:35;0.50;;;0.50;;
42420;SDS011;28063;48.140;11.588;2023-08-08T01:31:00;0.80;;;0.50;;
42420;SDS011;28063;48.140;11.588;2023-08-08T01:33:26;0.40;;;0.40;;
42420;SDS011;28063;48.140;11.588;2023-08-08T01:36:10;0.98;;;0.32;;
42420;SDS011;28063;48.140;11.588;2023-08-08T01:38:41;0.40;;;0.40;;
42420;SDS011;28063;48.140;11.588;2023-08-08T01:41:08;0.35;;;0.32;;
42420;SDS011;28063;48.140;11.588;2023-08-08T01:43:35;0.63;;;0.50;;
42420;SDS011;28063;48.140;11.588;2023-08-08T01:46:04;0.40;;;0.40;;
42420;SDS011;28063;48.140;11.588;2023-08-08T01:48:30;0.93;;;0.47;;
42420;SDS011;28063;48.140;11.588;2023-08-08T01:50:56;0.45;;;0.40;;
42420;SDS011;28063;48.140;11.588;2023-08-08T01:53:22;0.32;;;0.32;;
42420;SDS011;28063;48.140;11.588;2023-08-08T01:55:47;0.30;;;0.30;;
42420;SDS011;28063;48.140;11.588;2023-08-08T01:58:13;0.40;;;0.40;;
42420;SDS011;28063;48.140;11.588;2023-08-08T02:00:39;0.75;;;0.50;;
42420;SDS011;28063;48.140;11.588;2023-08-08T02:03:06;0.57;;;0.43;;
42420;SDS011;28063;48.140;11.588;2023-08-08T02:05:32;0.30;;;0.30;;
42420;SDS011;28063;48.140;11.588;2023-08-08T02:07:57;0.30;;;0.30;;
42420;SDS011;28063;48.140;11.588;2023-08-08T02:10:23;0.43;;;0.43;;
42420;SDS011;28063;48.140;11.588;2023-08-08T02:12:49;0.30;;;0.28;;
42420;SDS011;28063;48.140;11.588;2023-08-08T02:15:14;0.63;;;0.50;;
42420;SDS011;28063;48.140;11.588;2023-08-08T02:17:40;0.30;;;0.30;;
42420;SDS011;28063;48.140;11.588;2023-08-08T02:20:07;0.30;;;0.30;;
42420;SDS011;28063;48.140;11.588;2023-08-08T02:22:33;0.40;;;0.30;;
42420;SDS011;28063;48.140;11.588;2023-08-08T02:24:59;0.50;;;0.45;;
42420;SDS011;28063;48.140;11.588;2023-08-08T02:27:25;0.45;;;0.38;;
42420;SDS011;28063;48.140;11.588;2023-08-08T02:29:50;0.22;;;0.20;;
42420;SDS011;28063;48.140;11.588;2023-08-08T02:32:16;1.02;;;0.50;;
42420;SDS011;28063;48.140;11.588;2023-08-08T02:34:42;0.70;;;0.45;;
42420;SDS011;28063;48.140;11.588;2023-08-08T02:37:07;0.45;;;0.40;;
42420;SDS011;28063;48.140;11.588;2023-08-08T02:39:33;0.45;;;0.38;;
42420;SDS011;28063;48.140;11.588;2023-08-08T02:41:59;0.20;;;0.20;;
42420;SDS011;28063;48.140;11.588;2023-08-08T02:44:24;0.88;;;0.40;;
42420;SDS011;28063;48.140;11.588;2023-08-08T02:46:50;0.20;;;0.20;;
42420;SDS011;28063;48.140;11.588;2023-08-08T02:49:16;0.32;;;0.32;;
42420;SDS011;28063;48.140;11.588;2023-08-08T02:51:41;0.50;;;0.40;;
42420;SDS011;28063;48.140;11.588;2023-08-08T02:54:07;0.32;;;0.32;;
42420;SDS011;28063;48.140;11.588;2023-08-08T02:56:32;0.47;;;0.30;;
42420;SDS011;28063;48.140;11.588;2023-08-08T02:58:58;0.30;;;0.30;;
42420;SDS011;28063;48.140;11.588;2023-08-08T03:01:24;0.40;;;0.40;;
42420;SDS011;28063;48.140;11.588;2023-08-08T03:03:50;0.50;;;0.30;;
42420;SDS011;28063;48.140;11.588;2023-08-08T03:06:15;0.38;;;0.30;;
42420;SDS011;28063;48.140;11.588;2023-08-08T03:08:41;0.32;;;0.32;;
42420;SDS011;28063;48.140;11.588;2023-08-08T03:11:07;0.20;;;0.20;;
42420;SDS011;28063;48.140;11.588;2023-08-08T03:13:32;0.43;;;0.30;;
42420;SDS011;28063;48.140;11.588;2023-08-08T03:15:58;0.25;;;0.25;;
42420;SDS011;28063;48.140;11.588;2023-08-08T03:18:24;0.20;;;0.20;;
42420;SDS011;28063;48.140;11.588;2023-08-08T03:20:51;0.30;;;0.30;;
42420;SDS011;28063;48.140;11.588;2023-08-08T03:23:17;0.77;;;0.30;;
42420;SDS011;28063;48.140;11.588;2023-08-08T03:25:43;0.30;;;0.30;;
42420;SDS011;28063;48.140;11.588;2023-08-08T03:28:08;0.25;;;0.20;;
42420;SDS011;28063;48.140;11.588;2023-08-08T03:30:36;0.20;;;0.20;;
42420;SDS011;28063;48.140;11.588;2023-08-08T03:33:02;0.10;;;0.10;;
42420;SDS011;28063;48.140;11.588;2023-08-08T03:35:29;0.30;;;0.30;;
42420;SDS011;28063;48.140;11.588;2023-08-08T03:37:54;0.20;;;0.20;;
42420;SDS011;28063;48.140;11.588;2023-08-08T03:40:20;0.30;;;0.25;;
42420;SDS011;28063;48.140;11.588;2023-08-08T03:42:45;0.13;;;0.13;;
42420;SDS011;28063;48.140;11.588;2023-08-08T03:45:11;0.10;;;0.10;;
42420;SDS011;28063;48.140;11.588;2023-08-08T03:47:37;0.15;;;0.15;;
42420;SDS011;28063;48.140;11.588;2023-08-08T03:50:03;0.13;;;0.13;;
42420;SDS011;28063;48.140;11.588;2023-08-08T03:52:30;0.20;;;0.20;;
42420;SDS011;28063;48.140;11.588;2023-08-08T03:54:56;0.30;;;0.30;;
42420;SDS011;28063;48.140;11.588;2023-08-08T03:57:21;0.20;;;0.20;;
42420;SDS011;28063;48.140;11.588;2023-08-08T03:59:47;0.30;;;0.30;;
42420;SDS011;28063;48.140;11.588;2023-08-08T04:02:13;0.52;;;0.52;;
42420;SDS011;28063;48.140;11.588;2023-08-08T04:04:38;0.70;;;0.30;;
42420;SDS011;28063;48.140;11.588;2023-08-08T04:07:04;0.40;;;0.30;;
42420;SDS011;28063;48.140;11.588;2023-08-08T04:09:30;0.30;;;0.30;;
42420;SDS011;28063;48.140;11.588;2023-08-08T04:11:56;0.40;;;0.40;;
42420;SDS011;28063;48.140;11.588;2023-08-08T04:14:22;0.73;;;0.43;;
42420;SDS011;28063;48.140;11.588;2023-08-08T04:16:47;0.40;;;0.40;;
42420;SDS011;28063;48.140;11.588;2023-08-08T04:19:13;0.20;;;0.20;;
42420;SDS011;28063;48.140;11.588;2023-08-08T04:21:39;0.73;;;0.22;;
42420;SDS011;28063;48.140;11.588;2023-08-08T04:24:04;0.30;;;0.28;;
42420;SDS011;28063;48.140;11.588;2023-08-08T04:26:32;0.20;;;0.20;;
42420;SDS011;28063;48.140;11.588;2023-08-08T04:28:58;0.30;;;0.30;;
42420;SDS011;28063;48.140;11.588;2023-08-08T04:31:24;0.30;;;0.30;;
42420;SDS011;28063;48.140;11.588;2023-08-08T04:33:51;0.30;;;0.30;;
42420;SDS011;28063;48.140;11.588;2023-08-08T04:36:17;0.28;;;0.28;;
42420;SDS011;28063;48.140;11.588;2023-08-08T04:38:43;0.30;;;0.30;;
42420;SDS011;28063;48.140;11.588;2023-08-08T04:41:08;0.30;;;0.30;;
42420;SDS011;28063;48.140;11.588;2023-08-08T04:43:34;0.40;;;0.40;;
42420;SDS011;28063;48.140;11.588;2023-08-08T04:46:00;0.45;;;0.40;;
42420;SDS011;28063;48.140;11.588;2023-08-08T04:48:25;0.40;;;0.30;;
42420;SDS011;28063;48.140;11.588;2023-08-08T04:50:51;1.00;;;0.40;;
42420;SDS011;28063;48.140;11.588;2023-08-08T04:53:17;0.30;;;0.30;;
42420;SDS011;28063;48.140;11.588;2023-08-08T04:55:42;0.40;;;0.40;;
42420;SDS011;28063;48.140;11.588;2023-08-08T04:58:08;0.35;;;0.35;;
42420;SDS011;28063;48.140;11.588;2023-08-08T05:00:34;0.50;;;0.38;;
42420;SDS011;28063;48.140;11.588;2023-08-08T05:03:00;0.30;;;0.30;;
42420;SDS011;28063;48.140;11.588;2023-08-08T05:05:26;0.40;;;0.40;;
42420;SDS011;28063;48.140;11.588;2023-08-08T05:07:52;0.43;;;0.43;;
42420;SDS011;28063;48.140;11.588;2023-08-08T05:10:17;1.75;;;0.43;;
42420;SDS011;28063;48.140;11.588;2023-08-08T05:12:43;0.95;;;0.40;;
42420;SDS011;28063;48.140;11.588;2023-08-08T05:15:09;0.60;;;0.47;;
42420;SDS011;28063;48.140;11.588;2023-08-08T05:17:35;0.40;;;0.40;;
42420;SDS011;28063;48.140;11.588;2023-08-08T05:20:00;0.40;;;0.40;;
42420;SDS011;28063;48.140;11.588;2023-08-08T05:22:26;0.40;;;0.40;;
42420;SDS011;28063;48.140;11.588;2023-08-08T05:24:52;0.50;;;0.50;;
42420;SDS011;28063;48.140;11.588;2023-08-08T05:27:17;0.68;;;0.43;;
42420;SDS011;28063;48.140;11.588;2023-08-08T05:29:43;0.55;;;0.55;;
42420;SDS011;28063;48.140;11.588;2023-08-08T05:32:09;0.60;;;0.60;;
42420;SDS011;28063;48.140;11.588;2023-08-08T05:34:34;0.75;;;0.60;;
42420;SDS011;28063;48.140;11.588;2023-08-08T05:37:00;0.68;;;0.45;;
42420;SDS011;28063;48.140;11.588;2023-08-08T05:39:26;0.55;;;0.40;;
42420;SDS011;28063;48.140;11.588;2023-08-08T05:41:52;0.50;;;0.50;;
42420;SDS011;28063;48.140;11.588;2023-08-08T05:44:17;0.50;;;0.50;;
42420;SDS011;28063;48.140;11.588;2023-08-08T05:46:43;0.30;;;0.30;;
42420;SDS011;28063;48.140;11.588;2023-08-08T05:49:09;0.95;;;0.50;;
42420;SDS011;28063;48.140;11.588;2023-08-08T05:51:34;0.60;;;0.60;;
42420;SDS011;28063;48.140;11.588;2023-08-08T05:54:00;0.60;;;0.57;;
42420;SDS011;28063;48.140;11.588;2023-08-08T05:56:28;0.40;;;0.40;;
42420;SDS011;28063;48.140;11.588;2023-08-08T05:59:03;0.70;;;0.60;;
42420;SDS011;28063;48.140;11.588;2023-08-08T06:01:29;1.58;;;0.75;;
42420;SDS011;28063;48.140;11.588;2023-08-08T06:03:55;0.68;;;0.50;;
42420;SDS011;28063;48.140;11.588;2023-08-08T06:06:23;0.50;;;0.50;;
42420;SDS011;28063;48.140;11.588;2023-08-08T06:08:48;0.73;;;0.70;;
42420;SDS011;28063;48.140;11.588;2023-08-08T06:11:14;0.40;;;0.40;;
42420;SDS011;28063;48.140;11.588;2023-08-08T06:13:40;0.50;;;0.50;;
42420;SDS011;28063;48.140;11.588;2023-08-08T06:16:05;0.77;;;0.77;;
42420;SDS011;28063;48.140;11.588;2023-08-08T06:18:35;0.25;;;0.25;;
42420;SDS011;28063;48.140;11.588;2023-08-08T06:21:01;1.58;;;0.50;;
42420;SDS011;28063;48.140;11.588;2023-08-08T06:23:27;0.45;;;0.45;;
42420;SDS011;28063;48.140;11.588;2023-08-08T06:25:53;0.50;;;0.50;;
42420;SDS011;28063;48.140;11.588;2023-08-08T06:28:18;0.50;;;0.50;;
42420;SDS011;28063;48.140;11.588;2023-08-08T06:30:44;0.70;;;0.70;;
42420;SDS011;28063;48.140;11.588;2023-08-08T06:33:10;0.50;;;0.50;;
42420;SDS011;28063;48.140;11.588;2023-08-08T06:35:36;0.50;;;0.50;;
42420;SDS011;28063;48.140;11.588;2023-08-08T06:38:02;0.90;;;0.90;;
42420;SDS011;28063;48.140;11.588;2023-08-08T06:40:28;1.65;;;0.60;;
42420;SDS011;28063;48.140;11.588;2023-08-08T06:42:53;0.50;;;0.50;;
42420;SDS011;28063;48.140;11.588;2023-08-08T06:45:20;0.52;;;0.52;;
42420;SDS011;28063;48.140;11.588;2023-08-08T06:47:46;0.35;;;0.35;;
42420;SDS011;28063;48.140;11.588;2023-08-08T06:50:11;0.60;;;0.60;;
42420;SDS011;28063;48.140;11.588;2023-08-08T06:52:37;0.45;;;0.35;;
42420;SDS011;28063;48.140;11.588;2023-08-08T06:55:03;0.52;;;0.52;;
42420;SDS011;28063;48.140;11.588;2023-08-08T06:57:31;0.30;;;0.30;;
42420;SDS011;28063;48.140;11.588;2023-08-08T06:59:58;0.50;;;0.50;;
42420;SDS011;28063;48.140;11.588;2023-08-08T07:02:23;0.40;;;0.40;;
42420;SDS011;28063;48.140;11.588;2023-08-08T07:04:49;0.50;;;0.50;;
42420;SDS011;28063;48.140;11.588;2023-08-08T07:07:15;0.60;;;0.60;;
42420;SDS011;28063;48.140;11.588;2023-08-08T07:09:41;0.55;;;0.55;;
42420;SDS011;28063;48.140;11.588;2023-08-08T07:12:07;0.57;;;0.57;;
42420;SDS011;28063;48.140;11.588;2023-08-08T07:14:33;0.88;;;0.88;;
42420;SDS011;28063;48.140;11.588;2023-08-08T07:16:59;0.70;;;0.60;;
42420;SDS011;28063;48.140;11.588;2023-08-08T07:19:24;0.68;;;0.60;;
42420;SDS011;28063;48.140;11.588;2023-08-08T07:21:50;1.58;;;0.73;;
42420;SDS011;28063;48.140;11.588;2023-08-08T07:24:16;1.27;;;0.65;;
42420;SDS011;28063;48.140;11.588;2023-08-08T07:26:42;1.08;;;0.68;;
42420;SDS011;28063;48.140;11.588;2023-08-08T07:29:07;0.75;;;0.70;;
42420;SDS011;28063;48.140;11.588;2023-08-08T07:31:33;1.02;;;0.90;;
42420;SDS011;28063;48.140;11.588;2023-08-08T07:33:59;1.70;;;0.77;;
42420;SDS011;28063;48.140;11.588;2023-08-08T07:36:25;0.95;;;0.77;;
42420;SDS011;28063;48.140;11.588;2023-08-08T07:38:51;3.13;;;0.95;;
42420;SDS011;28063;48.140;11.588;2023-08-08T07:41:16;2.97;;;0.98;;
42420;SDS011;28063;48.140;11.588;2023-08-08T07:43:43;1.48;;;0.82;;
42420;SDS011;28063;48.140;11.588;2023-08-08T07:46:09;0.98;;;0.80;;
42420;SDS011;28063;48.140;11.588;2023-08-08T07:48:35;1.90;;;0.82;;
42420;SDS011;28063;48.140;11.588;2023-08-08T07:51:01;1.08;;;0.80;;
42420;SDS011;28063;48.140;11.588;2023-08-08T07:53:27;2.85;;;0.95;;
42420;SDS011;28063;48.140;11.588;2023-08-08T07:55:52;0.70;;;0.70;;
42420;SDS011;28063;48.140;11.588;2023-08-08T07:58:18;0.90;;;0.70;;
42420;SDS011;28063;48.140;11.588;2023-08-08T08:00:46;0.88;;;0.80;;
42420;SDS011;28063;48.140;11.588;2023-08-08T08:03:12;0.75;;;0.60;;
42420;SDS011;28063;48.140;11.588;2023-08-08T08:05:38;0.80;;;0.80;;
42420;SDS011;28063;48.140;11.588;2023-08-08T08:08:03;1.95;;;0.93;;
42420;SDS011;28063;48.140;11.588;2023-08-08T08:10:29;3.22;;;0.80;;
42420;SDS011;28063;48.140;11.588;2023-08-08T08:12:55;0.80;;;0.80;;
42420;SDS011;28063;48.140;11.588;2023-08-08T08:15:23;1.20;;;0.70;;
42420;SDS011;28063;48.140;11.588;2023-08-08T08:17:51;0.90;;;0.70;;
42420;SDS011;28063;48.140;11.588;2023-08-08T08:20:17;1.90;;;1.15;;
42420;SDS011;28063;48.140;11.588;2023-08-08T08:22:43;0.98;;;0.80;;
42420;SDS011;28063;48.140;11.588;2023-08-08T08:25:08;0.70;;;0.60;;
42420;SDS011;28063;48.140;11.588;2023-08-08T08:27:35;1.08;;;0.85;;
42420;SDS011;28063;48.140;11.588;2023-08-08T08:30:02;0.70;;;0.70;;
42420;SDS011;28063;48.140;11.588;2023-08-08T08:32:31;1.05;;;0.80;;
42420;SDS011;28063;48.140;11.588;2023-08-08T08:34:59;1.33;;;0.90;;
42420;SDS011;28063;48.140;11.588;2023-08-08T08:37:25;2.90;;;0.93;;
42420;SDS011;28063;48.140;11.588;2023-08-08T08:39:51;1.20;;;1.10;;
42420;SDS011;28063;48.140;11.588;2023-08-08T08:42:17;1.13;;;0.90;;
42420;SDS011;28063;48.140;11.588;2023-08-08T08:44:43;1.30;;;1.00;;
42420;SDS011;28063;48.140;11.588;2023-08-08T08:47:11;1.02;;;0.60;;
42420;SDS011;28063;48.140;11.588;2023-08-08T08:49:38;1.30;;;0.70;;
42420;SDS011;28063;48.140;11.588;2023-08-08T08:52:07;0.80;;;0.80;;
42420;SDS011;28063;48.140;11.588;2023-08-08T08:54:33;1.30;;;1.20;;
42420;SDS011;28063;48.140;11.588;2023-08-08T08:56:59;1.35;;;0.93;;
42420;SDS011;28063;48.140;11.588;2023-08-08T08:59:24;1.45;;;0.90;;
42420;SDS011;28063;48.140;11.588;2023-08-08T09:01:51;0.77;;;0.70;;
42420;SDS011;28063;48.140;11.588;2023-08-08T09:04:18;1.17;;;1.00;;
42420;SDS011;28063;48.140;11.588;2023-08-08T09:06:45;2.60;;;0.70;;
42420;SDS011;28063;48.140;11.588;2023-08-08T09:09:12;1.30;;;1.05;;
42420;SDS011;28063;48.140;11.588;2023-08-08T09:11:42;0.90;;;0.77;;
42420;SDS011;28063;48.140;11.588;2023-08-08T09:14:17;2.55;;;1.30;;
42420;SDS011;28063;48.140;11.588;2023-08-08T09:16:44;0.70;;;0.70;;
42420;SDS011;28063;48.140;11.588;2023-08-08T09:19:11;1.70;;;1.15;;
42420;SDS011;28063;48.140;11.588;2023-08-08T09:21:38;0.93;;;0.90;;
42420;SDS011;28063;48.140;11.588;2023-08-08T09:24:04;0.75;;;0.75;;
42420;SDS011;28063;48.140;11.588;2023-08-08T09:26:30;2.25;;;1.02;;
42420;SDS011;28063;48.140;11.588;2023-08-08T09:28:56;0.80;;;0.80;;
42420;SDS011;28063;48.140;11.588;2023-08-08T09:31:24;1.98;;;1.20;;
42420;SDS011;28063;48.140;11.588;2023-08-08T09:33:51;2.05;;;0.80;;
42420;SDS011;28063;48.140;11.588;2023-08-08T09:36:18;1.00;;;1.00;;
42420;SDS011;28063;48.140;11.588;2023-08-08T09:38:47;1.67;;;0.85;;
42420;SDS011;28063;48.140;11.588;2023-08-08T09:41:13;1.40;;;0.98;;
42420;SDS011;28063;48.140;11.588;2023-08-08T09:43:39;1.25;;;0.73;;
42420;SDS011;28063;48.140;11.588;2023-08-08T09:46:10;0.98;;;0.88;;
42420;SDS011;28063;48.140;11.588;2023-08-08T09:48:42;1.48;;;1.00;;
42420;SDS011;28063;48.140;11.588;2023-08-08T09:51:08;1.15;;;1.05;;
42420;SDS011;28063;48.140;11.588;2023-08-08T09:53:35;1.27;;;1.02;;
42420;SDS011;28063;48.140;11.588;2023-08-08T09:56:04;1.05;;;0.93;;
42420;SDS011;28063;48.140;11.588;2023-08-08T09:58:30;1.08;;;0.88;;
42420;SDS011;28063;48.140;11.588;2023-08-08T10:00:59;4.43;;;1.40;;
42420;SDS011;28063;48.140;11.588;2023-08-08T10:03:25;1.70;;;1.27;;
42420;SDS011;28063;48.140;11.588;2023-08-08T10:05:52;2.75;;;1.02;;
42420;SDS011;28063;48.140;11.588;2023-08-08T10:08:18;1.58;;;0.82;;
42420;SDS011;28063;48.140;11.588;2023-08-08T10:10:45;1.27;;;0.90;;
42420;SDS011;28063;48.140;11.588;2023-08-08T10:13:23;1.25;;;1.17;;
42420;SDS011;28063;48.140;11.588;2023-08-08T10:15:50;1.25;;;0.85;;
42420;SDS011;28063;48.140;11.588;2023-08-08T10:18:17;1.65;;;0.90;;
42420;SDS011;28063;48.140;11.588;2023-08-08T10:20:47;1.35;;;1.00;;
42420;SDS011;28063;48.140;11.588;2023-08-08T10:23:18;1.08;;;0.90;;
42420;SDS011;28063;48.140;11.588;2023-08-08T10:25:48;0.95;;;0.93;;
42420;SDS011;28063;48.140;11.588;2023-08-08T10:28:17;1.02;;;1.00;;
42420;SDS011;28063;48.140;11.588;2023-08-08T10:33:25;0.90;;;0.88;;
42420;SDS011;28063;48.140;11.588;2023-08-08T10:38:39;1.20;;;0.85;;
42420;SDS011;28063;48.140;11.588;2023-08-08T10:41:05;2.33;;;1.08;;
42420;SDS011;28063;48.140;11.588;2023-08-08T10:43:35;1.35;;;0.80;;
42420;SDS011;28063;48.140;11.588;2023-08-08T10:46:01;1.98;;;0.88;;
42420;SDS011;28063;48.140;11.588;2023-08-08T10:48:27;0.98;;;0.90;;
42420;SDS011;28063;48.140;11.588;2023-08-08T10:50:54;1.23;;;1.00;;
42420;SDS011;28063;48.140;11.588;2023-08-08T10:53:23;0.98;;;0.82;;
42420;SDS011;28063;48.140;11.588;2023-08-08T10:55:57;1.35;;;1.05;;
42420;SDS011;28063;48.140;11.588;2023-08-08T10:58:34;1.30;;;1.20;;
42420;SDS011;28063;48.140;11.588;2023-08-08T11:01:01;1.73;;;0.93;;
42420;SDS011;28063;48.140;11.588;2023-08-08T11:03:30;1.15;;;1.10;;
42420;SDS011;28063;48.140;11.588;2023-08-08T11:05:56;0.75;;;0.75;;
42420;SDS011;28063;48.140;11.588;2023-08-08T11:08:22;0.98;;;0.88;;
42420;SDS011;28063;48.140;11.588;2023-08-08T11:10:51;1.25;;;1.17;;
42420;SDS011;28063;48.140;11.588;2023-08-08T11:13:18;1.45;;;1.00;;
42420;SDS011;28063;48.140;11.588;2023-08-08T11:15:44;2.65;;;1.00;;
42420;SDS011;28063;48.140;11.588;2023-08-08T11:18:10;1.00;;;0.75;;
42420;SDS011;28063;48.140;11.588;2023-08-08T11:20:36;1.10;;;0.95;;
42420;SDS011;28063;48.140;11.588;2023-08-08T11:23:02;1.23;;;1.10;;
42420;SDS011;28063;48.140;11.588;2023-08-08T11:25:30;1.05;;;0.95;;
42420;SDS011;28063;48.140;11.588;2023-08-08T11:27:57;1.38;;;1.25;;
42420;SDS011;28063;48.140;11.588;2023-08-08T11:30:24;1.27;;;1.10;;
42420;SDS011;28063;48.140;11.588;2023-08-08T11:32:54;0.70;;;0.70;;
42420;SDS011;28063;48.140;11.588;2023-08-08T11:35:21;0.82;;;0.80;;
42420;SDS011;28063;48.140;11.588;2023-08-08T11:37:51;1.00;;;1.00;;
42420;SDS011;28063;48.140;11.588;2023-08-08T11:40:19;1.02;;;1.02;;
42420;SDS011;28063;48.140;11.588;2023-08-08T11:42:46;0.93;;;0.90;;
42420;SDS011;28063;48.140;11.588;2023-08-08T11:45:12;0.80;;;0.80;;
42420;SDS011;28063;48.140;11.588;2023-08-08T11:47:39;1.30;;;1.20;;
42420;SDS011;28063;48.140;11.588;2023-08-08T11:50:06;1.65;;;0.80;;
42420;SDS011;28063;48.140;11.588;2023-08-08T11:52:35;1.00;;;0.90;;
42420;SDS011;28063;48.140;11.588;2023-08-08T11:55:05;2.45;;;1.25;;
42420;SDS011;28063;48.140;11.588;2023-08-08T11:57:31;0.82;;;0.70;;
42420;SDS011;28063;48.140;11.588;2023-08-08T11:59:58;1.20;;;1.10;;
42420;SDS011;28063;48.140;11.588;2023-08-08T12:02:25;1.63;;;1.08;;
42420;SDS011;28063;48.140;11.588;2023-08-08T12:04:52;2.40;;;0.90;;
42420;SDS011;28063;48.140;11.588;2023-08-08T12:07:17;1.38;;;1.17;;
42420;SDS011;28063;48.140;11.588;2023-08-08T12:09:46;1.92;;;1.00;;
42420;SDS011;28063;48.140;11.588;2023-08-08T12:12:12;1.42;;;1.05;;
42420;SDS011;28063;48.140;11.588;2023-08-08T12:14:39;0.90;;;0.90;;
42420;SDS011;28063;48.140;11.588;2023-08-08T12:17:05;1.10;;;1.00;;
42420;SDS011;28063;48.140;11.588;2023-08-08T12:19:31;0.75;;;0.75;;
42420;SDS011;28063;48.140;11.588;2023-08-08T12:21:57;1.63;;;1.10;;
42420;SDS011;28063;48.140;11.588;2023-08-08T12:24:23;1.33;;;1.02;;
42420;SDS011;28063;48.140;11.588;2023-08-08T12:26:49;1.13;;;1.00;;
42420;SDS011;28063;48.140;11.588;2023-08-08T12:29:15;1.90;;;1.00;;
42420;SDS011;28063;48.140;11.588;2023-08-08T12:31:40;0.90;;;0.80;;
42420;SDS011;28063;48.140;11.588;2023-08-08T12:34:06;1.60;;;0.90;;
42420;SDS011;28063;48.140;11.588;2023-08-08T12:36:33;0.90;;;0.90;;
42420;SDS011;28063;48.140;11.588;2023-08-08T12:38:59;1.85;;;1.25;;
42420;SDS011;28063;48.140;11.588;2023-08-08T12:41:24;1.13;;;0.80;;
42420;SDS011;28063;48.140;11.588;2023-08-08T12:43:51;1.05;;;0.98;;
42420;SDS011;28063;48.140;11.588;2023-08-08T12:46:19;1.15;;;1.08;;
42420;SDS011;28063;48.140;11.588;2023-08-08T12:48:48;1.05;;;0.88;;
42420;SDS011;28063;48.140;11.588;2023-08-08T12:51:26;1.48;;;0.93;;
42420;SDS011;28063;48.140;11.588;2023-08-08T12:53:52;1.83;;;1.15;;
42420;SDS011;28063;48.140;11.588;2023-08-08T12:56:17;0.90;;;0.90;;
42420;SDS011;28063;48.140;11.588;2023-08-08T12:58:43;1.58;;;0.93;;
42420;SDS011;28063;48.140;11.588;2023-08-08T13:01:09;1.00;;;1.00;;
42420;SDS011;28063;48.140;11.588;2023-08-08T13:03:34;1.00;;;1.00;;
42420;SDS011;28063;48.140;11.588;2023-08-08T13:06:00;1.08;;;0.80;;
42420;SDS011;28063;48.140;11.588;2023-08-08T13:08:26;1.77;;;0.70;;
42420;SDS011;28063;48.140;11.588;2023-08-08T13:10:51;1.48;;;1.00;;
42420;SDS011;28063;48.140;11.588;2023-08-08T13:13:18;1.25;;;0.90;;
42420;SDS011;28063;48.140;11.588;2023-08-08T13:15:44;0.57;;;0.57;;
42420;SDS011;28063;48.140;11.588;2023-08-08T13:18:13;2.20;;;0.90;;
42420;SDS011;28063;48.140;11.588;2023-08-08T13:20:42;1.08;;;0.93;;
42420;SDS011;28063;48.140;11.588;2023-08-08T13:23:08;1.35;;;0.70;;
42420;SDS011;28063;48.140;11.588;2023-08-08T13:25:33;1.67;;;1.13;;
42420;SDS011;28063;48.140;11.588;2023-08-08T13:28:00;1.08;;;0.90;;
42420;SDS011;28063;48.140;11.588;2023-08-08T13:30:28;0.90;;;0.90;;
42420;SDS011;28063;48.140;11.588;2023-08-08T13:32:54;2.10;;;1.17;;
42420;SDS011;28063;48.140;11.588;2023-08-08T13:35:20;1.02;;;1.00;;
42420;SDS011;28063;48.140;11.588;2023-08-08T13:37:48;1.08;;;0.95;;
42420;SDS011;28063;48.140;11.588;2023-08-08T13:40:16;0.90;;;0.90;;
42420;SDS011;28063;48.140;11.588;2023-08-08T13:42:41;1.10;;;0.82;;
42420;SDS011;28063;48.140;11.588;2023-08-08T13:45:09;0.65;;;0.65;;
42420;SDS011;28063;48.140;11.588;2023-08-08T13:47:35;1.10;;;0.80;;
42420;SDS011;28063;48.140;11.588;2023-08-08T13:50:00;0.90;;;0.90;;
42420;SDS011;28063;48.140;11.588;2023-08-08T13:52:26;1.00;;;0.90;;
42420;SDS011;28063;48.140;11.588;2023-08-08T13:54:53;1.38;;;1.15;;
42420;SDS011;28063;48.140;11.588;2023-08-08T13:57:20;1.38;;;1.10;;
42420;SDS011;28063;48.140;11.588;2023-08-08T13:59:45;1.50;;;1.40;;
42420;SDS011;28063;48.140;11.588;2023-08-08T14:02:11;1.23;;;1.10;;
42420;SDS011;28063;48.140;11.588;2023-08-08T14:04:37;1.05;;;1.00;;
42420;SDS011;28063;48.140;11.588;2023-08-08T14:07:02;0.88;;;0.88;;
42420;SDS011;28063;48.140;11.588;2023-08-08T14:09:28;1.65;;;1.10;;
42420;SDS011;28063;48.140;11.588;2023-08-08T14:11:54;1.15;;;1.00;;
42420;SDS011;28063;48.140;11.588;2023-08-08T14:14:19;1.38;;;1.27;;
42420;SDS011;28063;48.140;11.588;2023-08-08T14:16:45;1.00;;;1.00;;
42420;SDS011;28063;48.140;11.588;2023-08-08T14:19:11;1.30;;;1.20;;
42420;SDS011;28063;48.140;11.588;2023-08-08T14:21:38;1.17;;;1.08;;
42420;SDS011;28063;48.140;11.588;2023-08-08T14:24:03;1.50;;;1.00;;
42420;SDS011;28063;48.140;11.588;2023-08-08T14:26:30;1.20;;;1.10;;
42420;SDS011;28063;48.140;11.588;2023-08-08T14:28:55;0.88;;;0.82;;
42420;SDS011;28063;48.140;11.588;2023-08-08T14:31:22;1.27;;;1.17;;
42420;SDS011;28063;48.140;11.588;2023-08-08T14:33:47;1.27;;;1.10;;
42420;SDS011;28063;48.140;11.588;2023-08-08T14:36:13;1.40;;;1.30;;